This is the latest recevied weather packets stored in our database for station/object AA5AW. If no packets are shown the sender has not sent any weather packets the latest 10 day(s).
| Time | Temp. | Humidity | Pressure | Rain* | Wind** | Luminosity | Snow |
|---|---|---|---|---|---|---|---|
| 1777662946 | 13.33° C | 94% | 1012.4 hPa | 0 mm | - | 165 W/m² | - |
| 1777644958 | 13.33° C | 96% | 1016.1 hPa | 3.3 mm | - | 21 W/m² | - |
| 1777636871 | 13.89° C | 96% | 1014.8 hPa | 1.52 mm | - | 0 W/m² | - |
| 1777634148 | 13.89° C | 96% | 1015.1 hPa | 1.52 mm | - | 0 W/m² | - |
| 1777633237 | 13.89° C | 96% | 1015 hPa | 1.52 mm | - | 0 W/m² | - |
| 1777631447 | 13.89° C | 96% | 1015 hPa | 1.52 mm | - | 0 W/m² | - |
| 1777630528 | 13.89° C | 96% | 1014.6 hPa | 1.27 mm | - | 0 W/m² | - |
| 1777628765 | 13.89° C | 96% | 1015 hPa | 0.25 mm | - | 0 W/m² | - |
| 1777627830 | 14.44° C | 96% | 1015 hPa | 0 mm | - | 0 W/m² | - |
| 1777616150 | 15° C | 96% | 1014.5 hPa | 0.76 mm | - | 0 W/m² | - |
| 1777614351 | 15.56° C | 96% | 1015.2 hPa | 0.25 mm | - | 0 W/m² | - |
| 1777601720 | 16.11° C | 95% | 1014.2 hPa | 0.25 mm | - | 0 W/m² | - |
| 1777598154 | 16.67° C | 95% | 1013.9 hPa | 0.25 mm | - | 0 W/m² | - |
| 1777587347 | 17.22° C | 94% | 1011.4 hPa | 0 mm | - | 116 W/m² | - |
| 1777582859 | 17.22° C | 95% | 1013.4 hPa | 0 mm | - | 100 W/m² | - |
| 1777581024 | 17.22° C | 95% | 1013.9 hPa | 0.51 mm | - | 86 W/m² | - |
| 1777576551 | 17.22° C | 95% | 1014.6 hPa | 0 mm | - | 127 W/m² | - |
| 1777563059 | 17.78° C | 97% | 1013.4 hPa | 0.25 mm | - | 174 W/m² | - |
| 1777561220 | 17.78° C | 97% | 1013.4 hPa | 0.25 mm | - | 56 W/m² | - |
| 1777560355 | 17.78° C | 97% | 1013.3 hPa | 0.25 mm | - | 39 W/m² | - |
| 1777559447 | 17.78° C | 97% | 1013.2 hPa | 0.25 mm | - | 47 W/m² | - |
| 1777555810 | 17.78° C | 97% | 1012.9 hPa | 0 mm | - | 39 W/m² | - |
| 1777554961 | 17.78° C | 97% | 1012.9 hPa | 0 mm | - | 26 W/m² | - |
| 1777552248 | 18.33° C | 97% | 1012.8 hPa | 0.51 mm | - | 11 W/m² | - |
| 1777550406 | 18.89° C | 97% | 1012.3 hPa | 0.25 mm | - | 5 W/m² | - |
* Rain latest hour (hover to see other rain measurements)
** Current wind speed in m/s (hover to see current wind gust speed)